createdAt,value
2018-07-10T00:03:21.710Z,23.60
2018-07-10T00:07:06.723Z,23.60
2018-07-10T00:10:43.846Z,23.50
2018-07-10T00:13:11.578Z,23.50
2018-07-10T00:15:39.310Z,23.50
2018-07-10T00:18:07.103Z,23.50
2018-07-10T00:20:34.919Z,23.40
2018-07-10T00:23:02.881Z,23.40
2018-07-10T00:25:30.632Z,23.40
2018-07-10T00:27:58.432Z,23.40
2018-07-10T00:30:26.208Z,23.40
2018-07-10T00:32:54.039Z,23.40
2018-07-10T00:35:21.811Z,23.40
2018-07-10T00:38:00.850Z,23.40
2018-07-10T00:40:28.643Z,23.40
2018-07-10T00:42:56.355Z,23.40
2018-07-10T00:45:24.101Z,23.40
2018-07-10T00:47:51.823Z,23.40
2018-07-10T00:50:19.655Z,23.30
2018-07-10T00:52:47.479Z,23.30
2018-07-10T00:55:15.307Z,23.30
2018-07-10T00:57:43.173Z,23.30
2018-07-10T01:00:15.672Z,23.30
2018-07-10T01:02:43.485Z,23.30
2018-07-10T01:05:11.228Z,23.30
2018-07-10T01:07:38.984Z,23.30
2018-07-10T01:10:06.707Z,23.20
2018-07-10T01:12:34.481Z,23.20
2018-07-10T01:15:02.279Z,23.20
2018-07-10T01:17:30.119Z,23.20
2018-07-10T01:19:57.933Z,23.20
2018-07-10T01:22:25.773Z,23.20
2018-07-10T01:24:53.652Z,23.20
2018-07-10T01:27:21.509Z,23.20
2018-07-10T01:29:49.371Z,23.10
2018-07-10T01:32:17.279Z,23.10
2018-07-10T01:34:45.081Z,23.10
2018-07-10T01:37:12.913Z,23.10
2018-07-10T01:39:40.748Z,23.10
2018-07-10T01:42:08.541Z,23.10
2018-07-10T01:44:36.389Z,23.10
2018-07-10T01:47:04.131Z,23.10
2018-07-10T01:49:31.924Z,23.10
2018-07-10T01:51:59.757Z,23.00
2018-07-10T01:54:27.575Z,23.00
2018-07-10T01:56:55.377Z,23.00
2018-07-10T01:59:23.207Z,23.00
2018-07-10T02:01:51.017Z,23.00
2018-07-10T02:04:18.833Z,23.00
2018-07-10T02:06:46.620Z,23.00
2018-07-10T02:09:14.473Z,23.00
2018-07-10T02:11:42.272Z,22.90
2018-07-10T02:16:37.695Z,22.90
2018-07-10T02:19:05.545Z,22.90
2018-07-10T02:21:33.400Z,22.90
2018-07-10T02:24:01.270Z,22.90
2018-07-10T02:26:29.127Z,22.90
2018-07-10T02:28:57.314Z,22.90
2018-07-10T02:31:25.125Z,22.90
2018-07-10T02:33:53.359Z,22.80
2018-07-10T02:36:22.162Z,22.80
2018-07-10T02:38:51.979Z,22.80
2018-07-10T02:41:21.087Z,22.80
2018-07-10T02:43:58.818Z,22.80
2018-07-10T02:46:27.671Z,22.80
2018-07-10T02:49:02.399Z,22.80
2018-07-10T02:51:30.187Z,22.70
2018-07-10T02:53:57.957Z,22.70
2018-07-10T02:56:25.753Z,22.70
2018-07-10T02:58:53.576Z,22.70
2018-07-10T03:01:21.366Z,22.70
2018-07-10T03:03:49.208Z,22.70
2018-07-10T03:06:17.095Z,22.70
2018-07-10T03:08:45.381Z,22.70
2018-07-10T03:11:13.359Z,22.70
2018-07-10T03:13:41.683Z,22.60
2018-07-10T03:16:09.520Z,22.60
2018-07-10T03:18:37.385Z,22.60
2018-07-10T03:21:05.251Z,22.60
2018-07-10T03:23:32.997Z,22.60
2018-07-10T03:26:00.833Z,22.60
2018-07-10T03:28:28.623Z,22.60
2018-07-10T03:30:56.445Z,22.60
2018-07-10T03:33:24.211Z,22.60
2018-07-10T03:35:52.051Z,22.60
2018-07-10T03:38:19.857Z,22.50
2018-07-10T03:40:47.630Z,22.50
2018-07-10T03:43:15.511Z,22.50
2018-07-10T03:45:43.443Z,22.50
2018-07-10T03:48:11.239Z,22.50
2018-07-10T03:50:39.259Z,22.50
2018-07-10T03:53:07.105Z,22.50
2018-07-10T03:55:36.439Z,22.50
2018-07-10T03:58:04.212Z,22.50
2018-07-10T04:00:34.719Z,22.40
2018-07-10T04:03:03.205Z,22.40
2018-07-10T04:05:31.014Z,22.40
2018-07-10T04:07:58.852Z,22.40
2018-07-10T04:10:27.996Z,22.40
2018-07-10T04:12:56.405Z,22.40
2018-07-10T04:15:24.190Z,22.40
2018-07-10T04:17:58.238Z,22.40
2018-07-10T04:20:30.257Z,22.40
2018-07-10T04:22:58.081Z,22.40
2018-07-10T04:25:30.807Z,22.30
2018-07-10T04:28:04.762Z,22.40
2018-07-10T04:31:43.499Z,22.30
2018-07-10T04:34:11.331Z,22.30
2018-07-10T04:36:39.156Z,22.30
2018-07-10T04:39:06.975Z,22.30
2018-07-10T04:41:37.235Z,22.30
2018-07-10T04:44:10.873Z,22.30
2018-07-10T04:46:42.212Z,22.30
2018-07-10T04:49:23.124Z,22.20
2018-07-10T04:51:57.616Z,22.20
2018-07-10T04:54:30.997Z,22.20
2018-07-10T04:57:03.315Z,22.20
2018-07-10T04:59:33.457Z,22.20
2018-07-10T05:02:01.651Z,22.20
2018-07-10T05:04:30.879Z,22.20
2018-07-10T05:07:02.126Z,22.20
2018-07-10T05:09:29.949Z,22.20
2018-07-10T05:11:57.792Z,22.20
2018-07-10T05:14:25.607Z,22.20
2018-07-10T05:16:53.405Z,22.10
2018-07-10T05:19:21.235Z,22.10
2018-07-10T05:21:49.076Z,22.10
2018-07-10T05:24:16.878Z,22.10
2018-07-10T05:26:44.764Z,22.10
2018-07-10T05:29:12.546Z,22.10
2018-07-10T05:31:40.363Z,22.10
2018-07-10T05:34:08.183Z,22.10
2018-07-10T05:36:36.019Z,22.10
2018-07-10T05:39:06.414Z,22.10
2018-07-10T05:41:42.511Z,22.10
2018-07-10T05:44:10.323Z,22.10
2018-07-10T05:46:38.157Z,22.10
2018-07-10T05:49:06.323Z,22.00
2018-07-10T05:51:47.744Z,22.10
2018-07-10T05:54:15.515Z,22.00
2018-07-10T05:56:43.285Z,22.00
2018-07-10T05:59:11.362Z,22.10
2018-07-10T06:01:39.902Z,22.00
2018-07-10T06:04:09.768Z,22.00
2018-07-10T06:06:37.568Z,22.00
2018-07-10T06:09:06.757Z,22.00
2018-07-10T06:11:35.472Z,22.00
2018-07-10T06:14:03.288Z,22.00
2018-07-10T06:16:31.078Z,22.00
2018-07-10T06:18:58.826Z,22.00
2018-07-10T06:21:38.526Z,22.00
2018-07-10T06:24:09.381Z,21.90
2018-07-10T06:26:39.629Z,21.90
2018-07-10T06:29:07.398Z,21.90
2018-07-10T06:31:44.248Z,21.90
2018-07-10T06:34:12.032Z,21.90
2018-07-10T06:36:46.454Z,21.90
2018-07-10T06:39:14.833Z,21.90
2018-07-10T06:42:21.396Z,21.90
2018-07-10T06:44:49.189Z,21.90
2018-07-10T06:47:20.911Z,21.90
2018-07-10T06:49:49.302Z,21.90
2018-07-10T06:52:21.033Z,21.90
2018-07-10T06:55:21.426Z,21.90
2018-07-10T06:57:50.196Z,21.90
2018-07-10T07:00:17.939Z,21.90
2018-07-10T07:02:45.752Z,21.90
2018-07-10T07:05:13.466Z,21.90
2018-07-10T07:07:41.424Z,21.80
2018-07-10T07:10:10.774Z,21.80
2018-07-10T07:12:39.346Z,21.80
2018-07-10T07:15:08.927Z,21.90
2018-07-10T07:17:39.377Z,21.80
2018-07-10T07:20:07.144Z,21.80
2018-07-10T07:22:34.886Z,21.80
2018-07-10T07:25:03.484Z,21.80
2018-07-10T07:27:31.467Z,21.80
2018-07-10T07:29:59.725Z,21.80
2018-07-10T07:32:27.847Z,21.80
2018-07-10T07:34:55.949Z,21.80
2018-07-10T07:37:24.072Z,21.80
2018-07-10T07:39:52.167Z,21.80
2018-07-10T07:42:19.956Z,21.80
2018-07-10T07:44:49.274Z,21.80
2018-07-10T07:47:19.399Z,21.80
2018-07-10T07:49:47.284Z,21.80
2018-07-10T07:52:15.077Z,21.80
2018-07-10T07:54:42.876Z,21.80
2018-07-10T07:57:10.599Z,21.80
2018-07-10T07:59:38.397Z,21.80
2018-07-10T08:02:06.147Z,21.80
2018-07-10T08:04:33.923Z,21.80
2018-07-10T08:07:01.688Z,21.80
2018-07-10T08:09:30.774Z,21.80
2018-07-10T08:11:58.635Z,21.80
2018-07-10T08:14:26.443Z,21.70
2018-07-10T08:16:54.296Z,21.70
2018-07-10T08:19:22.136Z,21.80
2018-07-10T08:21:50.964Z,21.70
2018-07-10T08:24:21.498Z,21.70
2018-07-10T08:26:50.602Z,21.80
2018-07-10T08:29:18.406Z,21.80
2018-07-10T08:31:47.144Z,21.80
2018-07-10T08:34:15.113Z,21.80
2018-07-10T08:36:42.893Z,21.80
2018-07-10T08:39:10.960Z,21.80
2018-07-10T08:41:44.562Z,21.80
2018-07-10T08:44:12.560Z,21.80
2018-07-10T08:46:40.808Z,21.80
2018-07-10T08:49:09.206Z,21.80
2018-07-10T08:51:37.027Z,21.80
2018-07-10T08:54:05.012Z,21.80
2018-07-10T08:56:32.813Z,21.70
2018-07-10T09:01:30.188Z,21.70
2018-07-10T09:03:57.999Z,21.70
2018-07-10T09:06:25.676Z,21.70
2018-07-10T09:08:53.476Z,21.70
2018-07-10T09:11:21.158Z,21.70
2018-07-10T09:13:48.991Z,21.70
2018-07-10T09:16:16.752Z,21.70
2018-07-10T09:18:45.347Z,21.70
2018-07-10T09:21:13.151Z,21.70
2018-07-10T09:23:40.985Z,21.70
2018-07-10T09:26:08.791Z,21.70
2018-07-10T09:28:37.436Z,21.70
2018-07-10T09:31:06.029Z,21.70
2018-07-10T09:33:34.546Z,21.70
2018-07-10T09:36:02.896Z,21.80
2018-07-10T09:38:31.411Z,21.80
2018-07-10T09:40:59.184Z,21.80
2018-07-10T09:43:26.998Z,21.80
2018-07-10T09:45:55.414Z,21.80
2018-07-10T09:48:23.208Z,21.80
2018-07-10T09:50:51.347Z,21.80
2018-07-10T09:53:19.222Z,21.80
2018-07-10T09:55:47.186Z,21.80
2018-07-10T09:58:15.046Z,21.80
2018-07-10T10:00:48.392Z,21.80
2018-07-10T10:03:16.213Z,21.80
2018-07-10T10:05:44.608Z,21.80
2018-07-10T10:08:12.724Z,21.80
2018-07-10T10:10:40.786Z,21.80
2018-07-10T10:13:08.840Z,21.80
2018-07-10T10:15:37.452Z,21.70
2018-07-10T10:18:07.074Z,21.70
2018-07-10T10:20:36.325Z,21.70
2018-07-10T10:23:04.412Z,21.70
2018-07-10T10:25:34.558Z,21.70
2018-07-10T10:28:03.601Z,21.70
2018-07-10T10:30:31.802Z,21.70
2018-07-10T10:32:59.602Z,21.70
2018-07-10T10:35:27.411Z,21.70
2018-07-10T10:37:55.686Z,21.70
2018-07-10T10:40:23.555Z,21.70
2018-07-10T10:42:51.324Z,21.70
2018-07-10T10:45:19.119Z,21.70
2018-07-10T10:47:46.979Z,21.70
2018-07-10T10:50:14.763Z,21.70
2018-07-10T10:52:42.847Z,21.70
2018-07-10T10:55:10.648Z,21.70
2018-07-10T10:57:39.581Z,21.70
2018-07-10T11:00:07.358Z,21.70
2018-07-10T11:02:35.802Z,21.70
2018-07-10T11:05:03.645Z,21.70
2018-07-10T11:07:32.441Z,21.70
2018-07-10T11:10:00.239Z,21.70
2018-07-10T11:12:30.044Z,21.70
2018-07-10T11:14:58.099Z,21.70
2018-07-10T11:17:30.628Z,21.70
2018-07-10T11:20:11.888Z,21.80
2018-07-10T11:22:58.309Z,21.70
2018-07-10T11:25:28.283Z,21.70
2018-07-10T11:28:04.064Z,21.70
2018-07-10T11:30:32.238Z,21.70
2018-07-10T11:33:00.951Z,21.70
2018-07-10T11:35:28.790Z,21.70
2018-07-10T11:37:57.056Z,21.70
2018-07-10T11:40:25.008Z,21.70
2018-07-10T11:42:52.825Z,21.70
2018-07-10T11:45:20.597Z,21.70
2018-07-10T11:47:48.397Z,21.70
2018-07-10T11:50:16.224Z,21.70
2018-07-10T11:52:44.018Z,21.70
2018-07-10T11:55:12.036Z,21.70
2018-07-10T11:57:40.120Z,21.70
2018-07-10T12:00:07.986Z,21.70
2018-07-10T12:02:41.996Z,21.70
2018-07-10T12:05:09.873Z,21.70
2018-07-10T12:07:38.825Z,21.70
2018-07-10T12:10:17.256Z,21.70
2018-07-10T12:12:45.743Z,21.70
2018-07-10T12:15:14.029Z,21.70
2018-07-10T12:17:41.957Z,21.70
2018-07-10T12:20:11.030Z,21.70
2018-07-10T12:22:39.378Z,21.70
2018-07-10T12:25:07.836Z,21.70
2018-07-10T12:27:35.670Z,21.70
2018-07-10T12:30:05.608Z,21.70
2018-07-10T12:32:33.916Z,21.70
2018-07-10T12:35:01.732Z,21.70
2018-07-10T12:37:29.732Z,21.70
2018-07-10T12:39:57.539Z,21.70
2018-07-10T12:42:25.356Z,21.70
2018-07-10T12:44:53.194Z,21.70
2018-07-10T12:47:21.006Z,21.70
2018-07-10T12:49:48.824Z,21.70
2018-07-10T12:52:16.615Z,21.70
2018-07-10T12:54:44.411Z,21.70
2018-07-10T12:57:12.334Z,21.70
2018-07-10T12:59:40.153Z,21.70
2018-07-10T13:02:08.284Z,21.70
2018-07-10T13:04:36.463Z,21.70
2018-07-10T13:07:04.279Z,21.70
2018-07-10T13:09:32.008Z,21.70
2018-07-10T13:11:59.764Z,21.70
2018-07-10T13:14:27.528Z,21.70
2018-07-10T13:16:55.348Z,21.70
2018-07-10T13:19:23.153Z,21.70
2018-07-10T13:21:51.048Z,21.70
2018-07-10T13:24:18.864Z,21.70
2018-07-10T13:26:46.659Z,21.70
2018-07-10T13:31:42.092Z,21.70
2018-07-10T13:34:09.898Z,21.70
2018-07-10T13:36:37.689Z,21.70
2018-07-10T13:39:06.117Z,21.70
2018-07-10T13:41:34.245Z,21.70
2018-07-10T13:44:02.053Z,21.70
2018-07-10T13:46:29.797Z,21.70
2018-07-10T13:48:57.633Z,21.60
2018-07-10T13:51:25.473Z,21.70
2018-07-10T13:53:53.293Z,21.70
2018-07-10T13:56:21.216Z,21.70
2018-07-10T13:58:49.303Z,21.70
2018-07-10T14:01:17.111Z,21.70
2018-07-10T14:03:44.949Z,21.70
2018-07-10T14:06:12.689Z,21.70
2018-07-10T14:08:40.480Z,21.70
2018-07-10T14:11:08.237Z,21.70
2018-07-10T14:13:36.170Z,21.70
2018-07-10T14:16:03.995Z,21.70
2018-07-10T14:18:31.790Z,21.70
2018-07-10T14:21:04.591Z,21.70
2018-07-10T14:23:32.384Z,21.60
2018-07-10T14:26:00.175Z,21.60
2018-07-10T14:28:28.037Z,21.70
2018-07-10T14:30:55.867Z,21.60
2018-07-10T14:33:23.683Z,21.60
2018-07-10T14:35:51.574Z,21.60
2018-07-10T14:38:23.621Z,21.60
2018-07-10T14:40:51.706Z,21.60
2018-07-10T14:43:51.418Z,21.60
2018-07-10T14:46:23.011Z,21.60
2018-07-10T14:48:58.102Z,21.60
2018-07-10T14:51:41.686Z,21.60
2018-07-10T14:54:10.037Z,21.60
2018-07-10T14:56:38.081Z,21.60
2018-07-10T14:59:06.567Z,21.60
2018-07-10T15:01:34.321Z,21.60
2018-07-10T15:04:02.138Z,21.60
2018-07-10T15:08:57.498Z,21.60
2018-07-10T15:11:25.272Z,21.60
2018-07-10T15:14:01.770Z,21.60
2018-07-10T15:16:35.216Z,21.60
2018-07-10T15:19:03.037Z,21.60
2018-07-10T15:21:30.918Z,21.60
2018-07-10T15:23:59.862Z,21.60
2018-07-10T15:26:27.553Z,21.60
2018-07-10T15:28:55.730Z,21.60
2018-07-10T15:31:23.522Z,21.60
2018-07-10T15:33:51.366Z,21.50
2018-07-10T15:36:19.220Z,21.50
2018-07-10T15:38:47.504Z,21.50
2018-07-10T15:41:15.965Z,21.50
2018-07-10T15:43:43.897Z,21.50
2018-07-10T15:46:11.705Z,21.50
2018-07-10T15:48:39.445Z,21.50
2018-07-10T15:51:07.371Z,21.50
2018-07-10T15:53:35.199Z,21.50
2018-07-10T15:56:03.005Z,21.50
2018-07-10T15:58:30.805Z,21.50
2018-07-10T16:00:58.620Z,21.50
2018-07-10T16:03:26.417Z,21.50
2018-07-10T16:05:54.298Z,21.40
2018-07-10T16:08:22.103Z,21.50
2018-07-10T16:10:52.364Z,21.40
2018-07-10T16:13:20.381Z,21.40
2018-07-10T16:15:51.300Z,21.40
2018-07-10T16:18:20.751Z,21.40
2018-07-10T16:20:48.546Z,21.40
2018-07-10T16:23:16.373Z,21.40
2018-07-10T16:25:46.618Z,21.40
2018-07-10T16:28:17.148Z,21.40
2018-07-10T16:30:47.263Z,21.40
2018-07-10T16:33:23.781Z,21.40
2018-07-10T16:35:51.649Z,21.40
2018-07-10T16:38:19.690Z,21.40
2018-07-10T16:40:49.511Z,21.40
2018-07-10T16:43:24.323Z,21.40
2018-07-10T16:45:52.874Z,21.40
2018-07-10T16:48:24.510Z,21.40
2018-07-10T16:51:00.814Z,21.40
2018-07-10T16:53:32.507Z,21.40
2018-07-10T16:56:00.387Z,21.40
2018-07-10T16:58:28.566Z,21.40
2018-07-10T17:00:57.511Z,21.40
2018-07-10T17:03:26.277Z,21.30
2018-07-10T17:05:54.043Z,21.30
2018-07-10T17:08:21.901Z,21.30
2018-07-10T17:10:49.717Z,21.30
2018-07-10T17:15:45.145Z,21.30
2018-07-10T17:18:14.486Z,21.30
2018-07-10T17:20:42.373Z,21.30
2018-07-10T17:23:10.615Z,21.30
2018-07-10T17:25:38.410Z,21.30
2018-07-10T17:28:09.018Z,21.30
2018-07-10T17:30:36.821Z,21.30
2018-07-10T17:33:04.703Z,21.30
2018-07-10T17:35:32.420Z,21.30
2018-07-10T17:38:00.230Z,21.30
2018-07-10T17:40:28.066Z,21.30
2018-07-10T17:42:55.878Z,21.20
2018-07-10T17:45:24.042Z,21.30
2018-07-10T17:47:52.184Z,21.30
2018-07-10T17:50:20.205Z,21.30
2018-07-10T17:52:48.009Z,21.30
2018-07-10T17:55:15.893Z,21.30
2018-07-10T17:57:43.723Z,21.30
2018-07-10T18:00:11.599Z,21.30
2018-07-10T18:02:39.396Z,21.20
2018-07-10T18:05:07.192Z,21.30
2018-07-10T18:07:34.968Z,21.20
2018-07-10T18:10:02.758Z,21.20
2018-07-10T18:12:30.550Z,21.20
2018-07-10T18:14:58.355Z,21.20
2018-07-10T18:17:26.198Z,21.20
2018-07-10T18:19:54.031Z,21.20
2018-07-10T18:22:21.815Z,21.20
2018-07-10T18:24:49.720Z,21.20
2018-07-10T18:27:17.464Z,21.20
2018-07-10T18:29:45.283Z,21.20
2018-07-10T18:32:13.079Z,21.20
2018-07-10T18:34:40.873Z,21.20
2018-07-10T18:37:08.821Z,21.20
2018-07-10T18:39:36.633Z,21.20
2018-07-10T18:44:32.022Z,21.20
2018-07-10T18:46:59.868Z,21.20
2018-07-10T18:49:27.973Z,21.20
2018-07-10T18:51:55.824Z,21.20
2018-07-10T18:54:34.991Z,21.20
2018-07-10T18:57:25.388Z,21.20
2018-07-10T18:59:57.566Z,21.20
2018-07-10T19:02:37.900Z,21.20
2018-07-10T19:05:06.986Z,21.20
2018-07-10T19:07:36.247Z,21.20
2018-07-10T19:10:04.024Z,21.10
2018-07-10T19:12:31.850Z,21.10
2018-07-10T19:14:59.940Z,21.10
2018-07-10T19:17:30.705Z,21.20
2018-07-10T19:20:10.801Z,21.20
2018-07-10T19:23:47.150Z,21.10
2018-07-10T19:26:15.682Z,21.20
2018-07-10T19:28:44.825Z,21.10
2018-07-10T19:31:15.429Z,21.10
2018-07-10T19:33:45.046Z,21.10
2018-07-10T19:36:12.887Z,21.10
2018-07-10T19:38:40.681Z,21.10
2018-07-10T19:41:09.229Z,21.10
2018-07-10T19:43:37.068Z,21.10
2018-07-10T19:46:04.898Z,21.10
2018-07-10T19:48:33.565Z,21.10
2018-07-10T19:51:01.936Z,21.10
2018-07-10T19:53:29.770Z,21.10
2018-07-10T19:55:57.572Z,21.10
2018-07-10T19:58:30.197Z,21.10
2018-07-10T20:02:10.040Z,21.10
2018-07-10T20:05:14.142Z,21.10
2018-07-10T20:07:44.174Z,21.00
2018-07-10T20:10:21.156Z,21.00
2018-07-10T20:13:52.982Z,21.00
2018-07-10T20:16:39.292Z,21.00
2018-07-10T20:20:08.433Z,21.00
2018-07-10T20:22:42.132Z,21.00
2018-07-10T20:26:20.177Z,21.00
2018-07-10T20:29:01.324Z,21.00
2018-07-10T20:31:41.063Z,21.00
2018-07-10T20:34:29.710Z,21.00
2018-07-10T20:36:57.554Z,21.00
2018-07-10T20:39:35.696Z,21.00
2018-07-10T20:42:03.976Z,21.00
2018-07-10T20:44:39.019Z,21.00
2018-07-10T20:47:06.943Z,21.00
2018-07-10T20:50:06.656Z,21.00
2018-07-10T20:52:51.179Z,20.90
2018-07-10T20:55:19.031Z,20.90
2018-07-10T20:57:58.995Z,20.90
2018-07-10T21:00:28.983Z,20.90
2018-07-10T21:03:04.428Z,20.90
2018-07-10T21:05:46.129Z,20.90
2018-07-10T21:08:21.438Z,20.90
2018-07-10T21:10:52.837Z,20.90
2018-07-10T21:13:57.468Z,20.90
2018-07-10T21:16:31.548Z,20.90
2018-07-10T21:19:10.363Z,20.90
2018-07-10T21:23:54.736Z,20.90
2018-07-10T21:26:41.054Z,20.90
2018-07-10T21:31:28.597Z,20.90
2018-07-10T21:34:08.373Z,20.80
2018-07-10T21:37:12.359Z,20.80
2018-07-10T21:40:48.600Z,20.80
2018-07-10T21:44:23.916Z,20.80
2018-07-10T21:47:04.184Z,20.80
2018-07-10T21:49:53.529Z,20.80
2018-07-10T21:52:21.402Z,20.80
2018-07-10T21:54:49.580Z,20.80
2018-07-10T21:57:18.660Z,20.80
2018-07-10T22:00:05.973Z,20.80
2018-07-10T22:02:33.764Z,20.80
2018-07-10T22:05:01.650Z,20.80
2018-07-10T22:07:30.080Z,20.80
2018-07-10T22:10:02.976Z,20.80
2018-07-10T22:12:30.864Z,20.80
2018-07-10T22:14:59.036Z,20.80
2018-07-10T22:17:27.600Z,20.80
2018-07-10T22:19:56.706Z,20.80
2018-07-10T22:22:29.528Z,20.80
2018-07-10T22:25:00.282Z,20.80
2018-07-10T22:27:28.069Z,20.80
2018-07-10T22:30:03.216Z,20.80
2018-07-10T22:32:38.817Z,20.70
2018-07-10T22:35:06.627Z,20.70
2018-07-10T22:37:34.447Z,20.70
2018-07-10T22:40:02.260Z,20.70
2018-07-10T22:42:29.996Z,20.70
2018-07-10T22:44:58.781Z,20.70
2018-07-10T22:47:33.648Z,20.70
2018-07-10T22:50:08.095Z,20.70
2018-07-10T22:52:44.099Z,20.70
2018-07-10T22:55:14.460Z,20.70
2018-07-10T22:57:42.314Z,20.70
2018-07-10T23:00:15.150Z,20.70
2018-07-10T23:02:42.974Z,20.70
2018-07-10T23:07:38.408Z,20.60
2018-07-10T23:10:06.302Z,20.60
2018-07-10T23:12:34.126Z,20.60
2018-07-10T23:15:01.960Z,20.60
2018-07-10T23:17:29.750Z,20.60
2018-07-10T23:19:57.568Z,20.60
2018-07-10T23:22:36.204Z,20.60
2018-07-10T23:25:04.138Z,20.60
2018-07-10T23:27:31.946Z,20.60
2018-07-10T23:29:59.768Z,20.60
2018-07-10T23:32:27.592Z,20.60
2018-07-10T23:34:55.420Z,20.60
2018-07-10T23:37:23.281Z,20.60
2018-07-10T23:39:52.746Z,20.60
2018-07-10T23:42:30.432Z,20.60
2018-07-10T23:45:29.322Z,20.50
2018-07-10T23:48:01.011Z,20.50
2018-07-10T23:50:29.827Z,20.50
2018-07-10T23:54:05.520Z,20.50
2018-07-10T23:56:33.284Z,20.50
2018-07-10T23:59:01.156Z,20.50
